Huachuca City, AZ (85616)

7:01 PM MST on September 14, 2014 (GMT -0700)
Lower Huachuca City | Change Station
CLOSE
Current Station
Personal Weather Station
Location: Huachuca City, AZ
Elevation: 4251 ft
Nearby Weather Stations

Elev 4251 ft 31.64 °N, 110.34 °W | Updated 4 seconds ago

Clear
Clear
78.5 °F
Feels Like 79 °F
N
1.8
Wind Variable Wind from SE
Gusts 2.5 mph

Today
High -- | Low -- °F
--% Chance of Precip.
Yesterday
High -- | Low -- °F
Precip. -- in
6:04 AM 6:28 PM
Waning Gibbous, 60% visible
Pressure 29.88 in
Visibility 10.0 miles
Clouds Clear
Heat Index 79 °F
Dew Point 57 °F
Humidity 48%
Rainfall 0.00 in
Snow Depth 0 in , 0 in , 0 in
UV 0 out of 12
Pollen 8.10 out of 12
Air Quality Not available.
Flu Activity Not available.
METAR KFHU 150156Z AUTO 17005KT 10SM CLR 25/14 A3004 RMK AO2 SLP118 T02500139 $

More Conditions Fewer Conditions

Pressure 29.88 in
Visibility 10.0 miles
Clouds Clear
Heat Index 79 °F
Dew Point 57 °F
Humidity 48%
Rainfall 0.00 in
Snow Depth 0 in , 0 in , 0 in
UV 0 out of 12
Pollen 8.10 out of 12
Air Quality Not available.
Flu Activity Not available.
METAR KFHU 150156Z AUTO 17005KT 10SM CLR 25/14 A3004 RMK AO2 SLP118 T02500139 $

More Conditions Fewer Conditions

10-Day Weather Forecast

Almanac

Astronomy

Sep. 14, 2014 Rise Set
Actual Time 6:04 AM MST 6:28 PM MST
Civil Twilight 5:40 AM MST 6:52 PM MST
Nautical Twilight 5:11 AM MST 7:21 PM MST
Astronomical Twilight 4:42 AM MST 7:50 PM MST
Moon 10:44 PM MST (9/14) 11:53 AM MST (9/14)
Length of Visible Light 13h 12m
Length of Day
12h 23m
Tomorrow will be 1m 54s shorter.
Waning Gibbous, 60% of the Moon is Illuminated
Today
Waning Gibbous
Sep 15
Last Quarter
Sep 24
New
Oct 1
First Quarter
Oct 8
Full

Today's Extremes

State Highs State Lows

Community

WunderPhotos

Upload Photos

1,753,371 photos uploaded!

Nearby

Snow Depth

Station Depth Elevation
Workman Creek 0 in 6900 ft
White Horse Lake 0 in 7180 ft
Maverick Fork 0 in 9200 ft

Earthquake Activity

City Distance Mag. Time & Date
No recent earthquake activity has been reported nearby.
Minimum magnitude displayed is 2.5.

Coastal Water Temperatures

Place Temperature
No Stations Reporting

Nearby Weather Stations